sensor_id;sensor_type;location;lat;lon;timestamp;pressure;altitude;pressure_sealevel;temperature;humidity
21817;BME280;13247;47.504;7.382;2023-05-20T00:01:14;97308.69;;;14.02;100.00
21817;BME280;13247;47.504;7.382;2023-05-20T00:03:59;97310.44;;;13.63;100.00
21817;BME280;13247;47.504;7.382;2023-05-20T00:06:44;97312.63;;;13.53;100.00
21817;BME280;13247;47.504;7.382;2023-05-20T00:09:29;97299.88;;;13.83;100.00
21817;BME280;13247;47.504;7.382;2023-05-20T00:12:13;97307.75;;;14.03;100.00
21817;BME280;13247;47.504;7.382;2023-05-20T00:14:58;97305.16;;;13.63;100.00
21817;BME280;13247;47.504;7.382;2023-05-20T00:17:42;97296.97;;;13.89;100.00
21817;BME280;13247;47.504;7.382;2023-05-20T00:20:27;97296.28;;;14.04;100.00
21817;BME280;13247;47.504;7.382;2023-05-20T00:23:12;97300.94;;;13.79;100.00
21817;BME280;13247;47.504;7.382;2023-05-20T00:25:56;97296.56;;;13.98;100.00
21817;BME280;13247;47.504;7.382;2023-05-20T00:28:41;97294.44;;;14.06;100.00
21817;BME280;13247;47.504;7.382;2023-05-20T00:31:25;97302.38;;;14.04;100.00
21817;BME280;13247;47.504;7.382;2023-05-20T00:34:10;97292.09;;;14.18;100.00
21817;BME280;13247;47.504;7.382;2023-05-20T00:36:54;97290.50;;;14.14;100.00
21817;BME280;13247;47.504;7.382;2023-05-20T00:39:39;97290.44;;;13.97;100.00
21817;BME280;13247;47.504;7.382;2023-05-20T00:42:26;97298.72;;;14.08;100.00
21817;BME280;13247;47.504;7.382;2023-05-20T00:45:10;97284.94;;;14.02;100.00
21817;BME280;13247;47.504;7.382;2023-05-20T00:47:55;97292.94;;;14.19;100.00
21817;BME280;13247;47.504;7.382;2023-05-20T00:50:42;97292.78;;;14.03;100.00
21817;BME280;13247;47.504;7.382;2023-05-20T00:53:28;97280.59;;;14.19;100.00
21817;BME280;13247;47.504;7.382;2023-05-20T00:56:13;97285.72;;;14.04;100.00
21817;BME280;13247;47.504;7.382;2023-05-20T00:58:59;97283.72;;;14.09;100.00
21817;BME280;13247;47.504;7.382;2023-05-20T01:01:44;97279.03;;;13.97;100.00
21817;BME280;13247;47.504;7.382;2023-05-20T01:04:29;97282.63;;;13.76;100.00
21817;BME280;13247;47.504;7.382;2023-05-20T01:07:16;97280.88;;;13.95;100.00
21817;BME280;13247;47.504;7.382;2023-05-20T01:10:02;97281.66;;;13.97;100.00
21817;BME280;13247;47.504;7.382;2023-05-20T01:12:53;97271.06;;;13.39;100.00
21817;BME280;13247;47.504;7.382;2023-05-20T01:15:40;97270.34;;;13.36;100.00
21817;BME280;13247;47.504;7.382;2023-05-20T01:18:27;97277.28;;;13.38;100.00
21817;BME280;13247;47.504;7.382;2023-05-20T01:21:15;97269.28;;;13.40;100.00
21817;BME280;13247;47.504;7.382;2023-05-20T01:24:00;97265.22;;;13.53;100.00
21817;BME280;13247;47.504;7.382;2023-05-20T01:26:47;97267.47;;;13.81;100.00
21817;BME280;13247;47.504;7.382;2023-05-20T01:29:34;97263.41;;;13.92;100.00
21817;BME280;13247;47.504;7.382;2023-05-20T01:32:23;97269.91;;;13.85;100.00
21817;BME280;13247;47.504;7.382;2023-05-20T01:35:08;97261.75;;;13.90;100.00
21817;BME280;13247;47.504;7.382;2023-05-20T01:37:55;97258.00;;;13.77;100.00
21817;BME280;13247;47.504;7.382;2023-05-20T01:40:41;97260.41;;;13.81;100.00
21817;BME280;13247;47.504;7.382;2023-05-20T01:43:27;97254.69;;;13.72;100.00
21817;BME280;13247;47.504;7.382;2023-05-20T01:46:12;97255.00;;;13.46;100.00
21817;BME280;13247;47.504;7.382;2023-05-20T01:48:56;97253.81;;;13.53;100.00
21817;BME280;13247;47.504;7.382;2023-05-20T01:51:41;97250.16;;;13.36;100.00
21817;BME280;13247;47.504;7.382;2023-05-20T01:54:26;97252.31;;;13.07;100.00
21817;BME280;13247;47.504;7.382;2023-05-20T01:57:11;97258.13;;;12.93;100.00
21817;BME280;13247;47.504;7.382;2023-05-20T01:59:55;97255.00;;;13.05;100.00
21817;BME280;13247;47.504;7.382;2023-05-20T02:02:40;97254.59;;;12.94;100.00
21817;BME280;13247;47.504;7.382;2023-05-20T02:05:24;97258.97;;;12.94;100.00
21817;BME280;13247;47.504;7.382;2023-05-20T02:08:09;97249.59;;;13.28;100.00
21817;BME280;13247;47.504;7.382;2023-05-20T02:10:54;97243.34;;;13.51;100.00
21817;BME280;13247;47.504;7.382;2023-05-20T02:13:39;97248.19;;;13.60;100.00
21817;BME280;13247;47.504;7.382;2023-05-20T02:16:24;97240.47;;;13.76;100.00
21817;BME280;13247;47.504;7.382;2023-05-20T02:19:09;97238.31;;;13.84;100.00
21817;BME280;13247;47.504;7.382;2023-05-20T02:21:56;97234.97;;;13.80;100.00
21817;BME280;13247;47.504;7.382;2023-05-20T02:24:40;97239.25;;;14.01;100.00
21817;BME280;13247;47.504;7.382;2023-05-20T02:27:27;97236.25;;;14.09;100.00
21817;BME280;13247;47.504;7.382;2023-05-20T02:30:12;97246.69;;;13.93;100.00
21817;BME280;13247;47.504;7.382;2023-05-20T02:32:57;97239.31;;;13.81;100.00
21817;BME280;13247;47.504;7.382;2023-05-20T02:35:43;97239.19;;;13.84;100.00
21817;BME280;13247;47.504;7.382;2023-05-20T02:38:27;97239.25;;;13.64;100.00
21817;BME280;13247;47.504;7.382;2023-05-20T02:41:12;97234.41;;;13.74;100.00
21817;BME280;13247;47.504;7.382;2023-05-20T02:43:57;97227.16;;;13.79;100.00
21817;BME280;13247;47.504;7.382;2023-05-20T02:46:41;97217.69;;;13.93;100.00
21817;BME280;13247;47.504;7.382;2023-05-20T02:49:26;97224.13;;;13.68;100.00
21817;BME280;13247;47.504;7.382;2023-05-20T02:52:10;97217.34;;;13.62;100.00
21817;BME280;13247;47.504;7.382;2023-05-20T02:54:55;97210.56;;;13.77;100.00
21817;BME280;13247;47.504;7.382;2023-05-20T02:57:40;97213.69;;;13.85;100.00
21817;BME280;13247;47.504;7.382;2023-05-20T03:00:24;97207.34;;;13.89;100.00
21817;BME280;13247;47.504;7.382;2023-05-20T03:03:11;97202.84;;;13.91;100.00
21817;BME280;13247;47.504;7.382;2023-05-20T03:05:57;97202.06;;;13.89;100.00
21817;BME280;13247;47.504;7.382;2023-05-20T03:08:41;97206.69;;;13.84;100.00
21817;BME280;13247;47.504;7.382;2023-05-20T03:11:26;97215.34;;;13.87;100.00
21817;BME280;13247;47.504;7.382;2023-05-20T03:14:10;97206.69;;;14.02;100.00
21817;BME280;13247;47.504;7.382;2023-05-20T03:16:55;97213.31;;;13.92;100.00
21817;BME280;13247;47.504;7.382;2023-05-20T03:19:40;97206.16;;;13.96;100.00
21817;BME280;13247;47.504;7.382;2023-05-20T03:22:25;97208.25;;;13.69;100.00
21817;BME280;13247;47.504;7.382;2023-05-20T03:25:09;97213.44;;;13.71;100.00
21817;BME280;13247;47.504;7.382;2023-05-20T03:27:54;97214.72;;;13.62;100.00
21817;BME280;13247;47.504;7.382;2023-05-20T03:30:38;97214.28;;;13.53;100.00
21817;BME280;13247;47.504;7.382;2023-05-20T03:33:23;97217.31;;;13.64;100.00
21817;BME280;13247;47.504;7.382;2023-05-20T03:36:09;97213.44;;;13.71;100.00
21817;BME280;13247;47.504;7.382;2023-05-20T03:38:54;97212.53;;;13.72;100.00
21817;BME280;13247;47.504;7.382;2023-05-20T03:41:39;97211.81;;;13.68;100.00
21817;BME280;13247;47.504;7.382;2023-05-20T03:44:23;97214.94;;;13.19;100.00
21817;BME280;13247;47.504;7.382;2023-05-20T03:47:08;97213.09;;;12.99;100.00
21817;BME280;13247;47.504;7.382;2023-05-20T03:49:52;97208.00;;;13.16;100.00
21817;BME280;13247;47.504;7.382;2023-05-20T03:52:37;97223.34;;;13.07;100.00
21817;BME280;13247;47.504;7.382;2023-05-20T03:55:21;97211.91;;;13.28;100.00
21817;BME280;13247;47.504;7.382;2023-05-20T03:58:06;97220.81;;;13.44;100.00
21817;BME280;13247;47.504;7.382;2023-05-20T04:00:51;97212.53;;;13.72;100.00
21817;BME280;13247;47.504;7.382;2023-05-20T04:03:36;97217.03;;;13.70;100.00
21817;BME280;13247;47.504;7.382;2023-05-20T04:06:20;97214.19;;;13.93;100.00
21817;BME280;13247;47.504;7.382;2023-05-20T04:09:05;97211.44;;;14.13;100.00
21817;BME280;13247;47.504;7.382;2023-05-20T04:11:50;97218.03;;;13.86;100.00
21817;BME280;13247;47.504;7.382;2023-05-20T04:14:34;97210.19;;;13.84;100.00
21817;BME280;13247;47.504;7.382;2023-05-20T04:17:19;97198.34;;;13.56;100.00
21817;BME280;13247;47.504;7.382;2023-05-20T04:20:04;97203.75;;;13.71;100.00
21817;BME280;13247;47.504;7.382;2023-05-20T04:22:51;97199.94;;;13.78;100.00
21817;BME280;13247;47.504;7.382;2023-05-20T04:25:37;97203.34;;;13.99;100.00
21817;BME280;13247;47.504;7.382;2023-05-20T04:28:23;97206.56;;;13.87;100.00
21817;BME280;13247;47.504;7.382;2023-05-20T04:31:11;97206.97;;;13.59;100.00
21817;BME280;13247;47.504;7.382;2023-05-20T04:33:56;97206.31;;;13.54;100.00
21817;BME280;13247;47.504;7.382;2023-05-20T04:36:41;97210.38;;;13.61;100.00
21817;BME280;13247;47.504;7.382;2023-05-20T04:39:27;97200.56;;;13.83;100.00
21817;BME280;13247;47.504;7.382;2023-05-20T04:42:11;97195.78;;;13.73;100.00
21817;BME280;13247;47.504;7.382;2023-05-20T04:44:56;97188.72;;;13.92;100.00
21817;BME280;13247;47.504;7.382;2023-05-20T04:47:42;97192.09;;;13.95;100.00
21817;BME280;13247;47.504;7.382;2023-05-20T04:50:27;97200.19;;;14.09;100.00
21817;BME280;13247;47.504;7.382;2023-05-20T04:53:13;97192.06;;;14.14;100.00
21817;BME280;13247;47.504;7.382;2023-05-20T04:55:57;97195.50;;;14.35;100.00
21817;BME280;13247;47.504;7.382;2023-05-20T04:58:42;97201.75;;;14.32;100.00
21817;BME280;13247;47.504;7.382;2023-05-20T05:01:26;97197.34;;;14.14;100.00
21817;BME280;13247;47.504;7.382;2023-05-20T05:04:11;97199.22;;;13.93;100.00
21817;BME280;13247;47.504;7.382;2023-05-20T05:06:56;97190.09;;;14.00;100.00
21817;BME280;13247;47.504;7.382;2023-05-20T05:09:40;97195.31;;;14.02;100.00
21817;BME280;13247;47.504;7.382;2023-05-20T05:12:25;97201.28;;;13.87;100.00
21817;BME280;13247;47.504;7.382;2023-05-20T05:15:10;97191.44;;;14.09;100.00
21817;BME280;13247;47.504;7.382;2023-05-20T05:17:55;97192.50;;;14.05;100.00
21817;BME280;13247;47.504;7.382;2023-05-20T05:20:39;97186.97;;;14.30;100.00
21817;BME280;13247;47.504;7.382;2023-05-20T05:23:25;97186.25;;;13.70;100.00
21817;BME280;13247;47.504;7.382;2023-05-20T05:26:09;97182.44;;;13.38;100.00
21817;BME280;13247;47.504;7.382;2023-05-20T05:28:54;97187.81;;;13.74;100.00
21817;BME280;13247;47.504;7.382;2023-05-20T05:31:39;97188.97;;;13.87;100.00
21817;BME280;13247;47.504;7.382;2023-05-20T05:34:24;97181.25;;;14.01;100.00
21817;BME280;13247;47.504;7.382;2023-05-20T05:37:09;97181.88;;;14.25;100.00
21817;BME280;13247;47.504;7.382;2023-05-20T05:39:54;97179.16;;;14.27;100.00
21817;BME280;13247;47.504;7.382;2023-05-20T05:42:39;97174.78;;;14.08;100.00
21817;BME280;13247;47.504;7.382;2023-05-20T05:45:23;97180.00;;;13.91;100.00
21817;BME280;13247;47.504;7.382;2023-05-20T05:48:08;97177.81;;;14.37;100.00
21817;BME280;13247;47.504;7.382;2023-05-20T05:50:53;97176.44;;;14.28;100.00
21817;BME280;13247;47.504;7.382;2023-05-20T05:53:37;97170.38;;;14.26;100.00
21817;BME280;13247;47.504;7.382;2023-05-20T05:56:21;97173.03;;;14.26;100.00
21817;BME280;13247;47.504;7.382;2023-05-20T05:59:06;97174.25;;;14.00;100.00
21817;BME280;13247;47.504;7.382;2023-05-20T06:01:50;97175.75;;;14.25;100.00
21817;BME280;13247;47.504;7.382;2023-05-20T06:04:35;97183.75;;;13.86;100.00
21817;BME280;13247;47.504;7.382;2023-05-20T06:07:21;97176.91;;;13.82;100.00
21817;BME280;13247;47.504;7.382;2023-05-20T06:10:06;97176.84;;;13.65;100.00
21817;BME280;13247;47.504;7.382;2023-05-20T06:12:51;97174.84;;;13.70;100.00
21817;BME280;13247;47.504;7.382;2023-05-20T06:15:35;97177.97;;;13.41;100.00
21817;BME280;13247;47.504;7.382;2023-05-20T06:18:21;97177.50;;;13.31;100.00
21817;BME280;13247;47.504;7.382;2023-05-20T06:21:05;97178.50;;;13.28;100.00
21817;BME280;13247;47.504;7.382;2023-05-20T06:23:50;97178.59;;;13.46;100.00
21817;BME280;13247;47.504;7.382;2023-05-20T06:26:34;97162.59;;;13.69;100.00
21817;BME280;13247;47.504;7.382;2023-05-20T06:29:19;97168.72;;;13.88;100.00
21817;BME280;13247;47.504;7.382;2023-05-20T06:32:04;97162.38;;;13.92;100.00
21817;BME280;13247;47.504;7.382;2023-05-20T06:34:49;97157.44;;;14.03;100.00
21817;BME280;13247;47.504;7.382;2023-05-20T06:37:34;97150.25;;;13.88;100.00
21817;BME280;13247;47.504;7.382;2023-05-20T06:40:18;97151.22;;;13.87;100.00
21817;BME280;13247;47.504;7.382;2023-05-20T06:43:03;97153.81;;;14.05;100.00
21817;BME280;13247;47.504;7.382;2023-05-20T06:45:48;97156.72;;;14.18;100.00
21817;BME280;13247;47.504;7.382;2023-05-20T06:48:33;97156.31;;;13.90;100.00
21817;BME280;13247;47.504;7.382;2023-05-20T06:51:17;97151.50;;;14.35;100.00
21817;BME280;13247;47.504;7.382;2023-05-20T06:54:02;97153.97;;;14.38;100.00
21817;BME280;13247;47.504;7.382;2023-05-20T06:56:46;97158.28;;;14.22;100.00
21817;BME280;13247;47.504;7.382;2023-05-20T06:59:31;97158.13;;;14.44;100.00
21817;BME280;13247;47.504;7.382;2023-05-20T07:02:15;97158.59;;;14.52;100.00
21817;BME280;13247;47.504;7.382;2023-05-20T07:05:00;97166.97;;;14.24;100.00
21817;BME280;13247;47.504;7.382;2023-05-20T07:07:44;97151.91;;;14.45;100.00
21817;BME280;13247;47.504;7.382;2023-05-20T07:10:29;97155.56;;;14.24;100.00
21817;BME280;13247;47.504;7.382;2023-05-20T07:13:13;97144.47;;;14.17;100.00
21817;BME280;13247;47.504;7.382;2023-05-20T07:15:59;97139.19;;;14.36;100.00
21817;BME280;13247;47.504;7.382;2023-05-20T07:18:43;97128.94;;;14.30;100.00
21817;BME280;13247;47.504;7.382;2023-05-20T07:21:28;97128.09;;;14.63;100.00
21817;BME280;13247;47.504;7.382;2023-05-20T07:24:12;97117.59;;;14.79;100.00
21817;BME280;13247;47.504;7.382;2023-05-20T07:26:57;97114.91;;;14.63;100.00
21817;BME280;13247;47.504;7.382;2023-05-20T07:29:41;97125.47;;;14.63;100.00
21817;BME280;13247;47.504;7.382;2023-05-20T07:32:26;97130.81;;;14.62;100.00
21817;BME280;13247;47.504;7.382;2023-05-20T07:35:10;97124.44;;;14.66;100.00
21817;BME280;13247;47.504;7.382;2023-05-20T07:37:55;97133.06;;;14.69;100.00
21817;BME280;13247;47.504;7.382;2023-05-20T07:40:43;97131.50;;;14.48;100.00
21817;BME280;13247;47.504;7.382;2023-05-20T07:43:28;97126.38;;;14.45;100.00
21817;BME280;13247;47.504;7.382;2023-05-20T07:46:13;97113.94;;;14.30;100.00
21817;BME280;13247;47.504;7.382;2023-05-20T07:48:58;97111.84;;;14.88;100.00
21817;BME280;13247;47.504;7.382;2023-05-20T07:51:42;97116.34;;;15.03;100.00
21817;BME280;13247;47.504;7.382;2023-05-20T07:54:26;97129.50;;;15.20;100.00
21817;BME280;13247;47.504;7.382;2023-05-20T07:57:11;97117.75;;;15.43;100.00
21817;BME280;13247;47.504;7.382;2023-05-20T07:59:56;97128.44;;;15.40;100.00
21817;BME280;13247;47.504;7.382;2023-05-20T08:02:40;97131.34;;;14.68;100.00
21817;BME280;13247;47.504;7.382;2023-05-20T08:05:25;97122.50;;;14.69;100.00
21817;BME280;13247;47.504;7.382;2023-05-20T08:08:09;97126.69;;;14.73;100.00
21817;BME280;13247;47.504;7.382;2023-05-20T08:10:55;97119.88;;;14.86;100.00
21817;BME280;13247;47.504;7.382;2023-05-20T08:13:42;97122.31;;;15.07;100.00
21817;BME280;13247;47.504;7.382;2023-05-20T08:16:27;97130.09;;;14.92;100.00
21817;BME280;13247;47.504;7.382;2023-05-20T08:19:12;97129.47;;;15.05;100.00
21817;BME280;13247;47.504;7.382;2023-05-20T08:21:56;97124.84;;;15.08;100.00
21817;BME280;13247;47.504;7.382;2023-05-20T08:24:41;97125.19;;;15.35;100.00
21817;BME280;13247;47.504;7.382;2023-05-20T08:27:25;97123.56;;;15.32;100.00
21817;BME280;13247;47.504;7.382;2023-05-20T08:30:10;97127.63;;;14.72;100.00
21817;BME280;13247;47.504;7.382;2023-05-20T08:32:55;97125.28;;;14.83;100.00
21817;BME280;13247;47.504;7.382;2023-05-20T08:35:40;97113.31;;;14.76;100.00
21817;BME280;13247;47.504;7.382;2023-05-20T08:38:25;97116.44;;;14.84;100.00
21817;BME280;13247;47.504;7.382;2023-05-20T08:41:09;97117.69;;;15.10;100.00
21817;BME280;13247;47.504;7.382;2023-05-20T08:43:55;97118.69;;;14.92;100.00
21817;BME280;13247;47.504;7.382;2023-05-20T08:46:40;97113.84;;;15.50;100.00
21817;BME280;13247;47.504;7.382;2023-05-20T08:49:25;97110.69;;;15.75;100.00
21817;BME280;13247;47.504;7.382;2023-05-20T08:52:11;97115.28;;;15.55;100.00
21817;BME280;13247;47.504;7.382;2023-05-20T08:54:57;97109.34;;;15.52;100.00
21817;BME280;13247;47.504;7.382;2023-05-20T08:57:42;97110.69;;;15.75;100.00
21817;BME280;13247;47.504;7.382;2023-05-20T09:00:29;97108.91;;;16.06;100.00
21817;BME280;13247;47.504;7.382;2023-05-20T09:03:15;97105.03;;;16.12;100.00
21817;BME280;13247;47.504;7.382;2023-05-20T09:06:07;97106.63;;;15.69;100.00
21817;BME280;13247;47.504;7.382;2023-05-20T09:08:52;97106.53;;;15.38;100.00
21817;BME280;13247;47.504;7.382;2023-05-20T09:11:38;97111.81;;;15.70;100.00
21817;BME280;13247;47.504;7.382;2023-05-20T09:14:23;97112.47;;;15.74;100.00
21817;BME280;13247;47.504;7.382;2023-05-20T09:17:11;97100.22;;;15.73;100.00
21817;BME280;13247;47.504;7.382;2023-05-20T09:19:55;97104.75;;;15.71;100.00
21817;BME280;13247;47.504;7.382;2023-05-20T09:22:40;97096.63;;;15.58;100.00
21817;BME280;13247;47.504;7.382;2023-05-20T09:25:25;97100.88;;;15.61;100.00
21817;BME280;13247;47.504;7.382;2023-05-20T09:28:10;97098.84;;;16.42;100.00
21817;BME280;13247;47.504;7.382;2023-05-20T09:30:59;97106.63;;;15.69;100.00
21817;BME280;13247;47.504;7.382;2023-05-20T09:33:44;97099.59;;;15.99;100.00
21817;BME280;13247;47.504;7.382;2023-05-20T09:36:29;97100.28;;;15.87;100.00
21817;BME280;13247;47.504;7.382;2023-05-20T09:39:17;97102.75;;;15.59;100.00
21817;BME280;13247;47.504;7.382;2023-05-20T09:42:17;97095.03;;;16.32;100.00
21817;BME280;13247;47.504;7.382;2023-05-20T09:45:04;97091.56;;;17.05;100.00
21817;BME280;13247;47.504;7.382;2023-05-20T09:47:50;97093.44;;;16.89;100.00
21817;BME280;13247;47.504;7.382;2023-05-20T09:50:36;97090.81;;;17.32;100.00
21817;BME280;13247;47.504;7.382;2023-05-20T09:53:23;97090.59;;;17.35;100.00
21817;BME280;13247;47.504;7.382;2023-05-20T09:56:10;97095.31;;;16.87;100.00
21817;BME280;13247;47.504;7.382;2023-05-20T09:58:57;97092.25;;;16.79;100.00
21817;BME280;13247;47.504;7.382;2023-05-20T10:01:43;97097.25;;;16.56;100.00
21817;BME280;13247;47.504;7.382;2023-05-20T10:04:30;97100.97;;;16.81;100.00
21817;BME280;13247;47.504;7.382;2023-05-20T10:16:37;97095.25;;;17.59;100.00
21817;BME280;13247;47.504;7.382;2023-05-20T10:19:31;97087.41;;;17.98;100.00
21817;BME280;13247;47.504;7.382;2023-05-20T10:22:26;97085.63;;;18.26;100.00
21817;BME280;13247;47.504;7.382;2023-05-20T10:25:26;97070.97;;;18.47;100.00
21817;BME280;13247;47.504;7.382;2023-05-20T10:28:11;97079.91;;;18.32;100.00
21817;BME280;13247;47.504;7.382;2023-05-20T10:30:56;97078.72;;;18.50;100.00
21817;BME280;13247;47.504;7.382;2023-05-20T10:33:43;97079.78;;;18.33;100.00
21817;BME280;13247;47.504;7.382;2023-05-20T10:36:28;97070.69;;;18.64;100.00
21817;BME280;13247;47.504;7.382;2023-05-20T10:39:15;97067.25;;;18.49;100.00
21817;BME280;13247;47.504;7.382;2023-05-20T10:42:10;97080.13;;;18.68;100.00
21817;BME280;13247;47.504;7.382;2023-05-20T10:44:54;97081.84;;;18.69;100.00
21817;BME280;13247;47.504;7.382;2023-05-20T10:47:56;97080.28;;;19.04;98.17
21817;BME280;13247;47.504;7.382;2023-05-20T10:50:42;97078.88;;;18.08;100.00
21817;BME280;13247;47.504;7.382;2023-05-20T10:53:28;97070.44;;;18.67;100.00
21817;BME280;13247;47.504;7.382;2023-05-20T10:56:18;97072.50;;;19.01;97.65
21817;BME280;13247;47.504;7.382;2023-05-20T10:59:03;97066.66;;;17.91;100.00
21817;BME280;13247;47.504;7.382;2023-05-20T11:01:48;97060.72;;;18.41;100.00
21817;BME280;13247;47.504;7.382;2023-05-20T11:04:34;97054.56;;;18.92;100.00
21817;BME280;13247;47.504;7.382;2023-05-20T11:07:29;97053.56;;;18.68;100.00
21817;BME280;13247;47.504;7.382;2023-05-20T11:10:13;97053.59;;;19.06;100.00
21817;BME280;13247;47.504;7.382;2023-05-20T11:12:59;97054.63;;;19.53;100.00
21817;BME280;13247;47.504;7.382;2023-05-20T11:15:44;97055.75;;;19.38;96.69
21817;BME280;13247;47.504;7.382;2023-05-20T11:18:29;97051.16;;;19.28;96.66
21817;BME280;13247;47.504;7.382;2023-05-20T11:21:14;97044.44;;;19.10;98.19
21817;BME280;13247;47.504;7.382;2023-05-20T11:23:59;97036.38;;;19.73;94.45
21817;BME280;13247;47.504;7.382;2023-05-20T11:26:44;97039.19;;;19.95;91.51
21817;BME280;13247;47.504;7.382;2023-05-20T11:29:29;97047.63;;;19.27;100.00
21817;BME280;13247;47.504;7.382;2023-05-20T11:32:18;97035.63;;;18.84;100.00
21817;BME280;13247;47.504;7.382;2023-05-20T11:35:03;97038.19;;;19.23;100.00
21817;BME280;13247;47.504;7.382;2023-05-20T11:37:59;97027.53;;;19.48;99.28
21817;BME280;13247;47.504;7.382;2023-05-20T11:40:54;97025.75;;;19.96;91.60
21817;BME280;13247;47.504;7.382;2023-05-20T11:43:42;97022.63;;;19.55;98.79
21817;BME280;13247;47.504;7.382;2023-05-20T11:46:27;97021.91;;;19.40;99.06
21817;BME280;13247;47.504;7.382;2023-05-20T11:49:15;97020.53;;;18.97;100.00
21817;BME280;13247;47.504;7.382;2023-05-20T11:52:02;97023.50;;;18.80;100.00
21817;BME280;13247;47.504;7.382;2023-05-20T11:54:53;97017.25;;;19.06;100.00
21817;BME280;13247;47.504;7.382;2023-05-20T11:57:38;97014.59;;;18.94;100.00
21817;BME280;13247;47.504;7.382;2023-05-20T12:00:23;97003.66;;;18.60;100.00
21817;BME280;13247;47.504;7.382;2023-05-20T12:03:08;97007.47;;;18.69;100.00
21817;BME280;13247;47.504;7.382;2023-05-20T12:05:53;97000.66;;;18.65;100.00
21817;BME280;13247;47.504;7.382;2023-05-20T12:08:38;96999.22;;;18.34;100.00
21817;BME280;13247;47.504;7.382;2023-05-20T12:11:23;96999.84;;;18.38;100.00
21817;BME280;13247;47.504;7.382;2023-05-20T12:14:08;96999.38;;;18.58;100.00
21817;BME280;13247;47.504;7.382;2023-05-20T12:16:53;97007.78;;;18.25;100.00
21817;BME280;13247;47.504;7.382;2023-05-20T12:19:37;97004.81;;;18.30;100.00
21817;BME280;13247;47.504;7.382;2023-05-20T12:22:22;96995.44;;;19.01;100.00
21817;BME280;13247;47.504;7.382;2023-05-20T12:25:07;97002.13;;;19.19;100.00
21817;BME280;13247;47.504;7.382;2023-05-20T12:27:51;97003.97;;;18.81;100.00
21817;BME280;13247;47.504;7.382;2023-05-20T12:30:36;97004.69;;;18.96;100.00
21817;BME280;13247;47.504;7.382;2023-05-20T12:33:21;97007.03;;;19.00;100.00
21817;BME280;13247;47.504;7.382;2023-05-20T12:36:05;97010.94;;;19.32;100.00
21817;BME280;13247;47.504;7.382;2023-05-20T12:38:50;97003.06;;;19.43;100.00
21817;BME280;13247;47.504;7.382;2023-05-20T12:41:35;96995.16;;;19.54;100.00
21817;BME280;13247;47.504;7.382;2023-05-20T12:44:19;96998.41;;;18.84;100.00
21817;BME280;13247;47.504;7.382;2023-05-20T12:47:04;96992.25;;;19.21;100.00
21817;BME280;13247;47.504;7.382;2023-05-20T12:49:48;96985.16;;;19.82;100.00
21817;BME280;13247;47.504;7.382;2023-05-20T12:52:33;96981.84;;;19.91;100.00
21817;BME280;13247;47.504;7.382;2023-05-20T12:55:17;96990.00;;;19.64;100.00
21817;BME280;13247;47.504;7.382;2023-05-20T12:58:02;96993.56;;;19.52;100.00
21817;BME280;13247;47.504;7.382;2023-05-20T13:00:46;96977.50;;;20.01;100.00
21817;BME280;13247;47.504;7.382;2023-05-20T13:03:31;96978.25;;;20.03;100.00
21817;BME280;13247;47.504;7.382;2023-05-20T13:06:15;96970.69;;;20.55;97.14
21817;BME280;13247;47.504;7.382;2023-05-20T13:09:00;96971.28;;;19.66;100.00
21817;BME280;13247;47.504;7.382;2023-05-20T13:11:44;96976.00;;;19.49;100.00
21817;BME280;13247;47.504;7.382;2023-05-20T13:14:29;96979.00;;;19.58;100.00
21817;BME280;13247;47.504;7.382;2023-05-20T13:17:13;96977.50;;;19.53;100.00
21817;BME280;13247;47.504;7.382;2023-05-20T13:19:59;96960.19;;;19.48;100.00
21817;BME280;13247;47.504;7.382;2023-05-20T13:22:43;96969.22;;;19.45;100.00
21817;BME280;13247;47.504;7.382;2023-05-20T13:25:28;96975.75;;;19.16;100.00
21817;BME280;13247;47.504;7.382;2023-05-20T13:28:12;96962.28;;;19.79;100.00
21817;BME280;13247;47.504;7.382;2023-05-20T13:31:01;96971.84;;;20.05;100.00
21817;BME280;13247;47.504;7.382;2023-05-20T13:33:46;96962.69;;;19.86;100.00
21817;BME280;13247;47.504;7.382;2023-05-20T13:36:31;96963.38;;;19.77;100.00
21817;BME280;13247;47.504;7.382;2023-05-20T13:39:16;96970.78;;;19.61;100.00
21817;BME280;13247;47.504;7.382;2023-05-20T13:42:01;96967.25;;;19.84;100.00
21817;BME280;13247;47.504;7.382;2023-05-20T13:44:46;96973.03;;;19.54;100.00
21817;BME280;13247;47.504;7.382;2023-05-20T13:47:30;96968.94;;;19.25;100.00
21817;BME280;13247;47.504;7.382;2023-05-20T13:50:15;96966.22;;;18.89;100.00
21817;BME280;13247;47.504;7.382;2023-05-20T13:53:00;96955.34;;;19.89;100.00
21817;BME280;13247;47.504;7.382;2023-05-20T13:55:44;96955.88;;;19.09;100.00
21817;BME280;13247;47.504;7.382;2023-05-20T13:58:29;96957.38;;;19.13;100.00
21817;BME280;13247;47.504;7.382;2023-05-20T14:01:14;96963.50;;;19.39;100.00
21817;BME280;13247;47.504;7.382;2023-05-20T14:03:59;96953.63;;;19.65;100.00
21817;BME280;13247;47.504;7.382;2023-05-20T14:06:44;96953.28;;;19.93;100.00
21817;BME280;13247;47.504;7.382;2023-05-20T14:09:28;96956.22;;;20.01;100.00
21817;BME280;13247;47.504;7.382;2023-05-20T14:12:13;96957.91;;;19.54;100.00
21817;BME280;13247;47.504;7.382;2023-05-20T14:14:57;96950.75;;;19.68;100.00
21817;BME280;13247;47.504;7.382;2023-05-20T14:17:42;96958.09;;;19.88;100.00
21817;BME280;13247;47.504;7.382;2023-05-20T14:20:26;96956.50;;;19.85;100.00
21817;BME280;13247;47.504;7.382;2023-05-20T14:23:11;96956.41;;;19.87;100.00
21817;BME280;13247;47.504;7.382;2023-05-20T14:25:56;96962.13;;;19.93;99.86
21817;BME280;13247;47.504;7.382;2023-05-20T14:28:41;96963.75;;;20.30;96.27
21817;BME280;13247;47.504;7.382;2023-05-20T14:31:26;96954.47;;;20.12;99.00
21817;BME280;13247;47.504;7.382;2023-05-20T14:34:11;96955.91;;;20.40;98.56